sensor_id;sensor_type;location;lat;lon;timestamp;pressure;altitude;pressure_sealevel;temperature;humidity
16355;BME280;8287;51.644;8.494;2023-06-26T00:02:24;100153.31;;;25.09;56.07
16355;BME280;8287;51.644;8.494;2023-06-26T00:04:51;100151.78;;;25.08;55.51
16355;BME280;8287;51.644;8.494;2023-06-26T00:07:19;100147.91;;;25.09;55.20
16355;BME280;8287;51.644;8.494;2023-06-26T00:09:45;100144.31;;;25.19;54.16
16355;BME280;8287;51.644;8.494;2023-06-26T00:12:12;100147.31;;;25.28;53.37
16355;BME280;8287;51.644;8.494;2023-06-26T00:14:40;100145.75;;;25.27;53.27
16355;BME280;8287;51.644;8.494;2023-06-26T00:17:06;100149.44;;;25.43;52.96
16355;BME280;8287;51.644;8.494;2023-06-26T00:19:33;100138.63;;;25.40;52.49
16355;BME280;8287;51.644;8.494;2023-06-26T00:22:00;100143.34;;;25.36;53.14
16355;BME280;8287;51.644;8.494;2023-06-26T00:24:26;100144.72;;;25.47;52.43
16355;BME280;8287;51.644;8.494;2023-06-26T00:26:53;100137.84;;;25.39;52.90
16355;BME280;8287;51.644;8.494;2023-06-26T00:29:19;100135.63;;;25.34;52.58
16355;BME280;8287;51.644;8.494;2023-06-26T00:31:47;100135.56;;;25.38;52.45
16355;BME280;8287;51.644;8.494;2023-06-26T00:34:14;100130.75;;;25.49;52.08
16355;BME280;8287;51.644;8.494;2023-06-26T00:36:41;100133.16;;;25.43;52.25
16355;BME280;8287;51.644;8.494;2023-06-26T00:39:09;100123.03;;;25.47;51.57
16355;BME280;8287;51.644;8.494;2023-06-26T00:41:35;100120.63;;;25.53;51.30
16355;BME280;8287;51.644;8.494;2023-06-26T00:44:02;100119.81;;;25.56;50.92
16355;BME280;8287;51.644;8.494;2023-06-26T00:46:29;100120.25;;;25.51;51.53
16355;BME280;8287;51.644;8.494;2023-06-26T00:48:59;100109.53;;;25.44;51.19
16355;BME280;8287;51.644;8.494;2023-06-26T00:51:26;100121.56;;;25.39;51.44
16355;BME280;8287;51.644;8.494;2023-06-26T00:53:52;100109.84;;;25.49;51.31
16355;BME280;8287;51.644;8.494;2023-06-26T00:56:20;100109.19;;;25.38;51.68
16355;BME280;8287;51.644;8.494;2023-06-26T00:58:46;100111.00;;;25.48;51.92
16355;BME280;8287;51.644;8.494;2023-06-26T01:01:13;100102.66;;;25.62;50.91
16355;BME280;8287;51.644;8.494;2023-06-26T01:03:43;100104.13;;;25.67;50.97
16355;BME280;8287;51.644;8.494;2023-06-26T01:06:14;100107.06;;;25.53;51.18
16355;BME280;8287;51.644;8.494;2023-06-26T01:08:41;100102.69;;;25.59;50.62
16355;BME280;8287;51.644;8.494;2023-06-26T01:11:08;100096.34;;;25.69;50.32
16355;BME280;8287;51.644;8.494;2023-06-26T01:13:35;100100.25;;;25.68;50.81
16355;BME280;8287;51.644;8.494;2023-06-26T01:16:03;100095.88;;;25.74;50.30
16355;BME280;8287;51.644;8.494;2023-06-26T01:18:31;100100.91;;;25.75;50.14
16355;BME280;8287;51.644;8.494;2023-06-26T01:20:58;100096.97;;;25.80;50.31
16355;BME280;8287;51.644;8.494;2023-06-26T01:23:31;100092.34;;;25.77;51.11
16355;BME280;8287;51.644;8.494;2023-06-26T01:26:15;100092.09;;;25.68;51.17
16355;BME280;8287;51.644;8.494;2023-06-26T01:28:43;100082.91;;;25.62;51.11
16355;BME280;8287;51.644;8.494;2023-06-26T01:31:11;100089.59;;;25.54;51.14
16355;BME280;8287;51.644;8.494;2023-06-26T01:33:39;100081.22;;;25.45;51.00
16355;BME280;8287;51.644;8.494;2023-06-26T01:36:06;100079.81;;;25.33;50.86
16355;BME280;8287;51.644;8.494;2023-06-26T01:38:33;100078.59;;;25.38;50.53
16355;BME280;8287;51.644;8.494;2023-06-26T01:41:01;100071.06;;;25.49;50.10
16355;BME280;8287;51.644;8.494;2023-06-26T01:43:36;100073.44;;;25.47;50.10
16355;BME280;8287;51.644;8.494;2023-06-26T01:46:06;100073.16;;;25.64;49.69
16355;BME280;8287;51.644;8.494;2023-06-26T01:48:42;100067.66;;;25.68;49.44
16355;BME280;8287;51.644;8.494;2023-06-26T01:51:13;100065.38;;;25.66;49.87
16355;BME280;8287;51.644;8.494;2023-06-26T01:53:45;100072.75;;;25.66;50.17
16355;BME280;8287;51.644;8.494;2023-06-26T01:56:14;100059.22;;;25.62;50.39
16355;BME280;8287;51.644;8.494;2023-06-26T01:58:47;100060.22;;;25.49;50.79
16355;BME280;8287;51.644;8.494;2023-06-26T02:01:14;100061.84;;;25.43;50.54
16355;BME280;8287;51.644;8.494;2023-06-26T02:03:40;100059.34;;;25.29;50.90
16355;BME280;8287;51.644;8.494;2023-06-26T02:06:07;100052.00;;;25.26;50.96
16355;BME280;8287;51.644;8.494;2023-06-26T02:08:33;100050.81;;;25.27;50.67
16355;BME280;8287;51.644;8.494;2023-06-26T02:11:00;100047.81;;;25.21;50.42
16355;BME280;8287;51.644;8.494;2023-06-26T02:13:26;100051.56;;;25.31;50.01
16355;BME280;8287;51.644;8.494;2023-06-26T02:15:54;100035.34;;;25.27;50.30
16355;BME280;8287;51.644;8.494;2023-06-26T02:18:21;100037.59;;;25.32;49.65
16355;BME280;8287;51.644;8.494;2023-06-26T02:20:48;100035.28;;;25.31;49.85
16355;BME280;8287;51.644;8.494;2023-06-26T02:23:15;100039.88;;;25.34;49.75
16355;BME280;8287;51.644;8.494;2023-06-26T02:25:41;100041.09;;;25.29;49.82
16355;BME280;8287;51.644;8.494;2023-06-26T02:28:08;100036.91;;;25.25;49.64
16355;BME280;8287;51.644;8.494;2023-06-26T02:30:34;100035.78;;;25.22;50.12
16355;BME280;8287;51.644;8.494;2023-06-26T02:33:02;100038.09;;;25.24;49.92
16355;BME280;8287;51.644;8.494;2023-06-26T02:35:29;100038.34;;;25.33;49.46
16355;BME280;8287;51.644;8.494;2023-06-26T02:37:55;100026.13;;;25.18;49.24
16355;BME280;8287;51.644;8.494;2023-06-26T02:40:22;100021.38;;;25.29;48.65
16355;BME280;8287;51.644;8.494;2023-06-26T02:42:49;100024.88;;;25.26;48.59
16355;BME280;8287;51.644;8.494;2023-06-26T02:45:15;100020.44;;;25.39;48.19
16355;BME280;8287;51.644;8.494;2023-06-26T02:47:42;100021.97;;;25.40;48.19
16355;BME280;8287;51.644;8.494;2023-06-26T02:50:10;100028.53;;;25.42;48.11
16355;BME280;8287;51.644;8.494;2023-06-26T02:52:36;100016.91;;;25.42;47.59
16355;BME280;8287;51.644;8.494;2023-06-26T02:55:04;100015.72;;;25.43;47.68
16355;BME280;8287;51.644;8.494;2023-06-26T02:57:31;100012.19;;;25.46;47.27
16355;BME280;8287;51.644;8.494;2023-06-26T02:59:58;100015.16;;;25.55;47.04
16355;BME280;8287;51.644;8.494;2023-06-26T03:02:24;100017.38;;;25.60;47.26
16355;BME280;8287;51.644;8.494;2023-06-26T03:04:51;100014.31;;;25.58;47.27
16355;BME280;8287;51.644;8.494;2023-06-26T03:07:19;100012.38;;;25.58;47.40
16355;BME280;8287;51.644;8.494;2023-06-26T03:09:46;100014.75;;;25.56;46.84
16355;BME280;8287;51.644;8.494;2023-06-26T03:12:12;100005.84;;;25.56;46.97
16355;BME280;8287;51.644;8.494;2023-06-26T03:14:39;100008.59;;;25.52;46.60
16355;BME280;8287;51.644;8.494;2023-06-26T03:17:05;100012.75;;;25.60;46.96
16355;BME280;8287;51.644;8.494;2023-06-26T03:19:32;100010.44;;;25.59;46.78
16355;BME280;8287;51.644;8.494;2023-06-26T03:21:59;100007.66;;;25.62;46.75
16355;BME280;8287;51.644;8.494;2023-06-26T03:24:27;100010.44;;;25.59;47.06
16355;BME280;8287;51.644;8.494;2023-06-26T03:26:53;100009.19;;;25.63;46.77
16355;BME280;8287;51.644;8.494;2023-06-26T03:29:20;100019.13;;;25.73;46.09
16355;BME280;8287;51.644;8.494;2023-06-26T03:31:46;100018.69;;;25.75;46.04
16355;BME280;8287;51.644;8.494;2023-06-26T03:34:13;100020.16;;;25.79;45.97
16355;BME280;8287;51.644;8.494;2023-06-26T03:36:40;100017.75;;;25.85;45.54
16355;BME280;8287;51.644;8.494;2023-06-26T03:39:06;100029.03;;;25.83;45.79
16355;BME280;8287;51.644;8.494;2023-06-26T03:41:34;100019.03;;;25.77;46.29
16355;BME280;8287;51.644;8.494;2023-06-26T03:44:01;100017.75;;;25.85;45.53
16355;BME280;8287;51.644;8.494;2023-06-26T03:46:28;100021.41;;;25.75;45.92
16355;BME280;8287;51.644;8.494;2023-06-26T03:48:55;100024.06;;;25.78;45.98
16355;BME280;8287;51.644;8.494;2023-06-26T03:51:21;100013.56;;;25.80;46.00
16355;BME280;8287;51.644;8.494;2023-06-26T03:53:48;100018.25;;;25.80;46.13
16355;BME280;8287;51.644;8.494;2023-06-26T03:56:15;100017.81;;;25.81;46.53
16355;BME280;8287;51.644;8.494;2023-06-26T03:58:43;100015.88;;;25.82;45.99
16355;BME280;8287;51.644;8.494;2023-06-26T04:01:09;100015.94;;;25.78;46.06
16355;BME280;8287;51.644;8.494;2023-06-26T04:03:36;100015.41;;;25.87;46.35
16355;BME280;8287;51.644;8.494;2023-06-26T04:06:03;100016.34;;;25.77;45.97
16355;BME280;8287;51.644;8.494;2023-06-26T04:08:29;100017.47;;;25.79;46.41
16355;BME280;8287;51.644;8.494;2023-06-26T04:10:56;100022.50;;;25.81;46.48
16355;BME280;8287;51.644;8.494;2023-06-26T04:13:24;100023.31;;;25.78;46.52
16355;BME280;8287;51.644;8.494;2023-06-26T04:15:52;100029.56;;;25.75;46.89
16355;BME280;8287;51.644;8.494;2023-06-26T04:18:18;100033.81;;;25.76;46.87
16355;BME280;8287;51.644;8.494;2023-06-26T04:21:04;100028.88;;;25.71;46.55
16355;BME280;8287;51.644;8.494;2023-06-26T04:23:31;100034.22;;;25.74;46.99
16355;BME280;8287;51.644;8.494;2023-06-26T04:25:57;100033.47;;;25.74;46.88
16355;BME280;8287;51.644;8.494;2023-06-26T04:28:24;100032.69;;;25.73;46.59
16355;BME280;8287;51.644;8.494;2023-06-26T04:30:52;100038.88;;;25.74;47.02
16355;BME280;8287;51.644;8.494;2023-06-26T04:33:19;100029.31;;;25.66;47.81
16355;BME280;8287;51.644;8.494;2023-06-26T04:35:45;100022.16;;;25.52;47.69
16355;BME280;8287;51.644;8.494;2023-06-26T04:38:14;100015.75;;;25.66;47.10
16355;BME280;8287;51.644;8.494;2023-06-26T04:40:40;100011.00;;;25.73;46.58
16355;BME280;8287;51.644;8.494;2023-06-26T04:43:07;100018.28;;;25.76;46.82
16355;BME280;8287;51.644;8.494;2023-06-26T04:45:33;100020.16;;;25.79;46.63
16355;BME280;8287;51.644;8.494;2023-06-26T04:48:01;100022.50;;;25.81;47.37
16355;BME280;8287;51.644;8.494;2023-06-26T04:50:28;100024.38;;;25.84;47.01
16355;BME280;8287;51.644;8.494;2023-06-26T04:52:55;100022.88;;;25.79;46.75
16355;BME280;8287;51.644;8.494;2023-06-26T04:55:24;100023.94;;;25.89;47.54
16355;BME280;8287;51.644;8.494;2023-06-26T04:57:51;100032.38;;;25.94;47.07
16355;BME280;8287;51.644;8.494;2023-06-26T05:00:18;100033.84;;;25.99;47.77
16355;BME280;8287;51.644;8.494;2023-06-26T05:02:45;100030.38;;;25.98;47.75
16355;BME280;8287;51.644;8.494;2023-06-26T05:05:13;100029.13;;;26.03;47.47
16355;BME280;8287;51.644;8.494;2023-06-26T05:07:41;100031.34;;;26.08;47.87
16355;BME280;8287;51.644;8.494;2023-06-26T05:10:08;100031.47;;;26.01;48.38
16355;BME280;8287;51.644;8.494;2023-06-26T05:12:34;100032.53;;;26.07;47.94
16355;BME280;8287;51.644;8.494;2023-06-26T05:15:01;100028.22;;;26.09;48.62
16355;BME280;8287;51.644;8.494;2023-06-26T05:17:28;100036.19;;;26.20;47.54
16355;BME280;8287;51.644;8.494;2023-06-26T05:19:54;100036.66;;;26.15;48.27
16355;BME280;8287;51.644;8.494;2023-06-26T05:22:23;100040.78;;;26.23;48.34
16355;BME280;8287;51.644;8.494;2023-06-26T05:24:51;100041.00;;;26.32;47.64
16355;BME280;8287;51.644;8.494;2023-06-26T05:27:21;100040.47;;;26.40;48.24
16355;BME280;8287;51.644;8.494;2023-06-26T05:29:48;100045.13;;;26.40;48.24
16355;BME280;8287;51.644;8.494;2023-06-26T05:32:16;100043.81;;;26.48;48.39
16355;BME280;8287;51.644;8.494;2023-06-26T05:34:45;100042.22;;;26.50;49.03
16355;BME280;8287;51.644;8.494;2023-06-26T05:37:14;100042.63;;;26.49;48.31
16355;BME280;8287;51.644;8.494;2023-06-26T05:39:46;100049.50;;;26.57;48.49
16355;BME280;8287;51.644;8.494;2023-06-26T05:42:13;100052.50;;;26.62;49.26
16355;BME280;8287;51.644;8.494;2023-06-26T05:44:40;100052.56;;;26.59;49.82
16355;BME280;8287;51.644;8.494;2023-06-26T05:47:07;100051.25;;;26.67;49.72
16355;BME280;8287;51.644;8.494;2023-06-26T05:49:34;100053.63;;;26.65;50.12
16355;BME280;8287;51.644;8.494;2023-06-26T05:52:01;100051.66;;;26.65;50.36
16355;BME280;8287;51.644;8.494;2023-06-26T05:54:28;100062.19;;;26.63;50.41
16355;BME280;8287;51.644;8.494;2023-06-26T05:56:58;100056.75;;;26.83;49.87
16355;BME280;8287;51.644;8.494;2023-06-26T05:59:25;100058.19;;;26.87;48.56
16355;BME280;8287;51.644;8.494;2023-06-26T06:01:53;100055.16;;;26.85;47.04
16355;BME280;8287;51.644;8.494;2023-06-26T06:04:19;100063.72;;;26.84;47.91
16355;BME280;8287;51.644;8.494;2023-06-26T06:06:46;100068.81;;;26.82;47.37
16355;BME280;8287;51.644;8.494;2023-06-26T06:09:12;100073.19;;;26.76;47.64
16355;BME280;8287;51.644;8.494;2023-06-26T06:11:39;100072.50;;;26.72;49.42
16355;BME280;8287;51.644;8.494;2023-06-26T06:14:07;100074.88;;;26.70;48.79
16355;BME280;8287;51.644;8.494;2023-06-26T06:16:34;100081.06;;;26.70;49.51
16355;BME280;8287;51.644;8.494;2023-06-26T06:19:00;100087.75;;;26.66;49.93
16355;BME280;8287;51.644;8.494;2023-06-26T06:21:28;100082.47;;;26.59;50.33
16355;BME280;8287;51.644;8.494;2023-06-26T06:23:55;100088.69;;;26.59;50.71
16355;BME280;8287;51.644;8.494;2023-06-26T06:26:22;100094.88;;;26.60;50.93
16355;BME280;8287;51.644;8.494;2023-06-26T06:28:49;100083.59;;;26.61;50.87
16355;BME280;8287;51.644;8.494;2023-06-26T06:31:16;100091.81;;;26.58;51.47
16355;BME280;8287;51.644;8.494;2023-06-26T06:33:43;100097.00;;;26.49;50.51
16355;BME280;8287;51.644;8.494;2023-06-26T06:36:09;100097.59;;;26.37;51.23
16355;BME280;8287;51.644;8.494;2023-06-26T06:38:36;100093.28;;;26.39;52.24
16355;BME280;8287;51.644;8.494;2023-06-26T06:41:03;100091.00;;;26.38;51.30
16355;BME280;8287;51.644;8.494;2023-06-26T06:43:29;100097.59;;;26.37;51.80
16355;BME280;8287;51.644;8.494;2023-06-26T06:45:56;100105.75;;;26.37;51.67
16355;BME280;8287;51.644;8.494;2023-06-26T06:48:24;100097.16;;;26.38;51.55
16355;BME280;8287;51.644;8.494;2023-06-26T06:50:51;100111.41;;;26.46;51.96
16355;BME280;8287;51.644;8.494;2023-06-26T06:53:17;100114.13;;;26.46;51.92
16355;BME280;8287;51.644;8.494;2023-06-26T06:55:45;100131.50;;;26.52;52.56
16355;BME280;8287;51.644;8.494;2023-06-26T06:58:12;100131.09;;;26.53;52.68
16355;BME280;8287;51.644;8.494;2023-06-26T07:00:39;100126.94;;;26.45;52.97
16355;BME280;8287;51.644;8.494;2023-06-26T07:03:05;100144.97;;;26.36;52.83
16355;BME280;8287;51.644;8.494;2023-06-26T07:05:33;100132.56;;;26.35;52.90
16355;BME280;8287;51.644;8.494;2023-06-26T07:08:00;100129.72;;;26.42;53.42
16355;BME280;8287;51.644;8.494;2023-06-26T07:10:26;100131.53;;;26.48;53.94
16355;BME280;8287;51.644;8.494;2023-06-26T07:12:53;100139.78;;;26.45;53.57
16355;BME280;8287;51.644;8.494;2023-06-26T07:15:20;100137.53;;;26.40;53.94
16355;BME280;8287;51.644;8.494;2023-06-26T07:17:46;100147.84;;;26.48;54.15
16355;BME280;8287;51.644;8.494;2023-06-26T07:20:13;100144.84;;;26.43;54.69
16355;BME280;8287;51.644;8.494;2023-06-26T07:22:43;100155.03;;;26.39;54.37
16355;BME280;8287;51.644;8.494;2023-06-26T07:25:11;100154.63;;;26.40;55.29
16355;BME280;8287;51.644;8.494;2023-06-26T07:27:38;100159.03;;;26.31;55.11
16355;BME280;8287;51.644;8.494;2023-06-26T07:30:06;100152.41;;;26.32;56.14
16355;BME280;8287;51.644;8.494;2023-06-26T07:32:34;100153.50;;;26.38;56.13
16355;BME280;8287;51.644;8.494;2023-06-26T07:35:01;100157.75;;;26.39;55.75
16355;BME280;8287;51.644;8.494;2023-06-26T07:37:27;100157.34;;;26.40;56.36
16355;BME280;8287;51.644;8.494;2023-06-26T07:39:55;100154.84;;;26.49;56.13
16355;BME280;8287;51.644;8.494;2023-06-26T07:42:22;100145.81;;;26.56;56.62
16355;BME280;8287;51.644;8.494;2023-06-26T07:44:48;100140.53;;;26.68;57.00
16355;BME280;8287;51.644;8.494;2023-06-26T07:47:15;100152.97;;;26.89;56.93
16355;BME280;8287;51.644;8.494;2023-06-26T07:49:42;100155.34;;;27.06;55.99
16355;BME280;8287;51.644;8.494;2023-06-26T07:52:08;100157.78;;;27.01;56.84
16355;BME280;8287;51.644;8.494;2023-06-26T07:54:36;100147.34;;;26.99;57.30
16355;BME280;8287;51.644;8.494;2023-06-26T07:57:05;100160.50;;;27.01;55.24
16355;BME280;8287;51.644;8.494;2023-06-26T07:59:33;100165.13;;;27.04;54.87
16355;BME280;8287;51.644;8.494;2023-06-26T08:02:00;100173.88;;;26.92;55.29
16355;BME280;8287;51.644;8.494;2023-06-26T08:04:28;100183.81;;;26.59;55.81
16355;BME280;8287;51.644;8.494;2023-06-26T08:06:57;100192.78;;;26.56;56.70
16355;BME280;8287;51.644;8.494;2023-06-26T08:09:26;100196.28;;;26.57;56.76
16355;BME280;8287;51.644;8.494;2023-06-26T08:11:53;100196.41;;;26.46;56.92
16355;BME280;8287;51.644;8.494;2023-06-26T08:14:21;100204.75;;;26.36;57.81
16355;BME280;8287;51.644;8.494;2023-06-26T08:16:48;100215.59;;;26.36;58.23
16355;BME280;8287;51.644;8.494;2023-06-26T08:19:16;100214.22;;;26.28;59.40
16355;BME280;8287;51.644;8.494;2023-06-26T08:21:44;100231.78;;;26.20;59.34
16355;BME280;8287;51.644;8.494;2023-06-26T08:24:11;100216.88;;;26.05;59.14
16355;BME280;8287;51.644;8.494;2023-06-26T08:26:38;100211.44;;;26.05;60.45
16355;BME280;8287;51.644;8.494;2023-06-26T08:29:05;100216.41;;;26.10;60.59
16355;BME280;8287;51.644;8.494;2023-06-26T08:31:35;100212.97;;;26.06;60.63
16355;BME280;8287;51.644;8.494;2023-06-26T08:34:02;100212.88;;;26.13;61.08
16355;BME280;8287;51.644;8.494;2023-06-26T08:36:29;100212.53;;;26.34;61.41
16355;BME280;8287;51.644;8.494;2023-06-26T08:38:56;100221.44;;;26.38;61.03
16355;BME280;8287;51.644;8.494;2023-06-26T08:41:23;100223.19;;;26.51;61.12
16355;BME280;8287;51.644;8.494;2023-06-26T08:43:49;100222.41;;;26.47;60.76
16355;BME280;8287;51.644;8.494;2023-06-26T08:46:18;100219.28;;;26.49;59.94
16355;BME280;8287;51.644;8.494;2023-06-26T08:48:54;100224.88;;;26.38;59.41
16355;BME280;8287;51.644;8.494;2023-06-26T08:51:23;100221.78;;;26.40;59.37
16355;BME280;8287;51.644;8.494;2023-06-26T08:53:56;100213.91;;;26.45;59.73
16355;BME280;8287;51.644;8.494;2023-06-26T08:56:24;100215.16;;;26.41;58.71
16355;BME280;8287;51.644;8.494;2023-06-26T08:58:51;100220.19;;;26.42;59.36
16355;BME280;8287;51.644;8.494;2023-06-26T09:01:18;100224.19;;;26.34;59.74
16355;BME280;8287;51.644;8.494;2023-06-26T09:03:46;100229.34;;;26.29;59.69
16355;BME280;8287;51.644;8.494;2023-06-26T09:06:13;100239.00;;;26.30;59.39
16355;BME280;8287;51.644;8.494;2023-06-26T09:08:39;100238.66;;;26.28;60.25
16355;BME280;8287;51.644;8.494;2023-06-26T09:11:06;100240.59;;;26.27;60.99
16355;BME280;8287;51.644;8.494;2023-06-26T09:13:33;100248.94;;;26.13;61.77
16355;BME280;8287;51.644;8.494;2023-06-26T09:16:04;100245.28;;;26.00;61.50
16355;BME280;8287;51.644;8.494;2023-06-26T09:18:33;100243.16;;;26.11;61.25
16355;BME280;8287;51.644;8.494;2023-06-26T09:21:06;100249.94;;;26.26;60.73
16355;BME280;8287;51.644;8.494;2023-06-26T09:23:33;100255.47;;;26.46;61.28
16355;BME280;8287;51.644;8.494;2023-06-26T09:26:02;100260.41;;;26.51;60.14
16355;BME280;8287;51.644;8.494;2023-06-26T09:28:30;100244.94;;;26.48;60.64
16355;BME280;8287;51.644;8.494;2023-06-26T09:31:00;100255.91;;;26.41;60.54
16355;BME280;8287;51.644;8.494;2023-06-26T09:33:27;100244.44;;;26.56;60.00
16355;BME280;8287;51.644;8.494;2023-06-26T09:35:54;100251.47;;;26.77;60.53
16355;BME280;8287;51.644;8.494;2023-06-26T09:38:22;100255.38;;;26.76;59.58
16355;BME280;8287;51.644;8.494;2023-06-26T09:40:48;100259.78;;;26.70;59.34
16355;BME280;8287;51.644;8.494;2023-06-26T09:43:15;100256.66;;;26.68;60.08
16355;BME280;8287;51.644;8.494;2023-06-26T09:45:42;100256.78;;;26.84;60.24
16355;BME280;8287;51.644;8.494;2023-06-26T09:48:08;100259.28;;;26.98;59.97
16355;BME280;8287;51.644;8.494;2023-06-26T09:50:41;100256.50;;;27.01;59.14
16355;BME280;8287;51.644;8.494;2023-06-26T09:53:08;100253.72;;;27.05;59.59
16355;BME280;8287;51.644;8.494;2023-06-26T09:55:37;100264.09;;;27.10;60.02
16355;BME280;8287;51.644;8.494;2023-06-26T09:58:04;100266.00;;;27.13;58.53
16355;BME280;8287;51.644;8.494;2023-06-26T10:00:31;100270.28;;;26.91;58.65
16355;BME280;8287;51.644;8.494;2023-06-26T10:02:58;100264.00;;;26.94;59.62
16355;BME280;8287;51.644;8.494;2023-06-26T10:05:24;100262.66;;;26.82;58.86
16355;BME280;8287;51.644;8.494;2023-06-26T10:07:52;100269.81;;;26.96;59.01
16355;BME280;8287;51.644;8.494;2023-06-26T10:10:19;100265.69;;;27.07;58.38
16355;BME280;8287;51.644;8.494;2023-06-26T10:12:49;100273.84;;;27.07;58.60
16355;BME280;8287;51.644;8.494;2023-06-26T10:15:19;100267.91;;;27.16;57.78
16355;BME280;8287;51.644;8.494;2023-06-26T10:17:46;100274.16;;;27.13;58.71
16355;BME280;8287;51.644;8.494;2023-06-26T10:20:14;100271.22;;;27.04;58.43
16355;BME280;8287;51.644;8.494;2023-06-26T10:22:44;100262.69;;;27.02;59.04
16355;BME280;8287;51.644;8.494;2023-06-26T10:25:14;100272.31;;;27.06;60.02
16355;BME280;8287;51.644;8.494;2023-06-26T10:27:45;100266.72;;;27.17;59.30
16355;BME280;8287;51.644;8.494;2023-06-26T10:30:18;100276.75;;;27.20;59.02
16355;BME280;8287;51.644;8.494;2023-06-26T10:32:47;100278.38;;;27.17;58.83
16355;BME280;8287;51.644;8.494;2023-06-26T10:35:14;100278.88;;;27.09;58.83
16355;BME280;8287;51.644;8.494;2023-06-26T10:37:42;100280.47;;;27.06;58.37
16355;BME280;8287;51.644;8.494;2023-06-26T10:40:10;100282.97;;;26.97;58.25
16355;BME280;8287;51.644;8.494;2023-06-26T10:42:38;100284.72;;;26.88;58.90
16355;BME280;8287;51.644;8.494;2023-06-26T10:45:09;100277.63;;;26.71;58.54
16355;BME280;8287;51.644;8.494;2023-06-26T10:47:39;100275.59;;;26.75;58.77
16355;BME280;8287;51.644;8.494;2023-06-26T10:50:20;100281.97;;;26.65;58.07
16355;BME280;8287;51.644;8.494;2023-06-26T10:53:07;100284.44;;;26.56;57.68
16355;BME280;8287;51.644;8.494;2023-06-26T10:55:34;100286.69;;;26.61;57.77
16355;BME280;8287;51.644;8.494;2023-06-26T10:58:00;100291.25;;;26.67;57.89
16355;BME280;8287;51.644;8.494;2023-06-26T11:00:28;100293.53;;;26.69;57.18
16355;BME280;8287;51.644;8.494;2023-06-26T11:02:56;100290.19;;;26.61;57.15
16355;BME280;8287;51.644;8.494;2023-06-26T11:05:24;100285.03;;;26.67;58.04
16355;BME280;8287;51.644;8.494;2023-06-26T11:08:05;100283.88;;;26.91;57.83
16355;BME280;8287;51.644;8.494;2023-06-26T11:10:49;100282.63;;;26.95;56.68
16355;BME280;8287;51.644;8.494;2023-06-26T11:13:17;100291.22;;;27.17;56.20
16355;BME280;8287;51.644;8.494;2023-06-26T11:15:44;100283.84;;;27.37;56.07
16355;BME280;8287;51.644;8.494;2023-06-26T11:18:13;100292.50;;;27.51;55.94
16355;BME280;8287;51.644;8.494;2023-06-26T11:20:40;100287.00;;;27.55;54.75
16355;BME280;8287;51.644;8.494;2023-06-26T11:23:07;100298.38;;;27.50;55.56
16355;BME280;8287;51.644;8.494;2023-06-26T11:25:36;100300.56;;;27.58;54.97
16355;BME280;8287;51.644;8.494;2023-06-26T11:28:03;100302.09;;;27.59;54.76
16355;BME280;8287;51.644;8.494;2023-06-26T11:30:30;100300.41;;;27.46;51.55
16355;BME280;8287;51.644;8.494;2023-06-26T11:33:04;100304.50;;;27.34;49.32
16355;BME280;8287;51.644;8.494;2023-06-26T11:35:33;100296.53;;;27.24;50.19
16355;BME280;8287;51.644;8.494;2023-06-26T11:38:00;100303.22;;;27.19;50.92
16355;BME280;8287;51.644;8.494;2023-06-26T11:40:32;100299.44;;;27.13;51.53
16355;BME280;8287;51.644;8.494;2023-06-26T11:43:00;100306.00;;;27.16;50.89
16355;BME280;8287;51.644;8.494;2023-06-26T11:45:28;100301.22;;;27.43;50.13
16355;BME280;8287;51.644;8.494;2023-06-26T11:47:55;100301.84;;;27.70;48.28
16355;BME280;8287;51.644;8.494;2023-06-26T11:50:24;100314.09;;;27.81;46.94
16355;BME280;8287;51.644;8.494;2023-06-26T11:52:55;100322.00;;;27.76;47.11
16355;BME280;8287;51.644;8.494;2023-06-26T11:55:22;100327.84;;;27.55;47.11
16355;BME280;8287;51.644;8.494;2023-06-26T11:57:49;100328.88;;;27.41;47.86
16355;BME280;8287;51.644;8.494;2023-06-26T12:00:16;100333.25;;;27.12;47.63
16355;BME280;8287;51.644;8.494;2023-06-26T12:02:44;100332.50;;;27.12;48.43
16355;BME280;8287;51.644;8.494;2023-06-26T12:05:11;100319.94;;;27.41;47.99
16355;BME280;8287;51.644;8.494;2023-06-26T12:07:39;100322.81;;;27.73;47.28
16355;BME280;8287;51.644;8.494;2023-06-26T12:10:09;100334.16;;;27.91;46.13
16355;BME280;8287;51.644;8.494;2023-06-26T12:12:36;100336.41;;;27.96;43.91
16355;BME280;8287;51.644;8.494;2023-06-26T12:15:06;100325.91;;;28.13;45.92
16355;BME280;8287;51.644;8.494;2023-06-26T12:17:33;100319.03;;;28.25;44.16
16355;BME280;8287;51.644;8.494;2023-06-26T12:19:59;100318.72;;;28.39;44.30
16355;BME280;8287;51.644;8.494;2023-06-26T12:22:33;100322.41;;;28.64;44.39
16355;BME280;8287;51.644;8.494;2023-06-26T12:25:08;100326.00;;;28.77;43.49
16355;BME280;8287;51.644;8.494;2023-06-26T12:27:36;100313.63;;;28.89;41.65
16355;BME280;8287;51.644;8.494;2023-06-26T12:30:04;100322.44;;;28.96;40.55
16355;BME280;8287;51.644;8.494;2023-06-26T12:32:32;100319.41;;;28.91;39.53
16355;BME280;8287;51.644;8.494;2023-06-26T12:35:00;100329.28;;;29.04;39.25
16355;BME280;8287;51.644;8.494;2023-06-26T12:37:27;100316.44;;;29.17;40.85
16355;BME280;8287;51.644;8.494;2023-06-26T12:39:55;100321.03;;;29.20;41.03
16355;BME280;8287;51.644;8.494;2023-06-26T12:42:25;100320.53;;;29.09;38.72
16355;BME280;8287;51.644;8.494;2023-06-26T12:44:52;100324.31;;;29.15;37.44
16355;BME280;8287;51.644;8.494;2023-06-26T12:47:25;100315.19;;;29.06;36.18
16355;BME280;8287;51.644;8.494;2023-06-26T12:49:52;100326.81;;;28.94;37.14
16355;BME280;8287;51.644;8.494;2023-06-26T12:52:20;100327.78;;;29.00;36.85
16355;BME280;8287;51.644;8.494;2023-06-26T12:54:51;100336.66;;;28.88;37.92
16355;BME280;8287;51.644;8.494;2023-06-26T12:57:18;100338.09;;;28.76;37.37
16355;BME280;8287;51.644;8.494;2023-06-26T12:59:46;100320.97;;;28.92;39.13
16355;BME280;8287;51.644;8.494;2023-06-26T13:02:13;100326.25;;;28.99;38.85
16355;BME280;8287;51.644;8.494;2023-06-26T13:04:40;100323.13;;;29.00;40.01